Holland, Nebraska
Current Conditions -  °F | °C
As of 1:22 PM on Saturday 20 Dec 2014 (Local Time) from KLNK Reporting Station
Haze Haze  
Wind Chill: 28°   Ceiling: 500
Heat Index: 33°   Visibility: 5mi
Dew Point: 31°   Wind: 6mph
Humidity: 92%   Direction: 160°SSE
Pressure: 30.07"   Gusts: NA
Location:  40.6166°N, 96.617°W
Report Text: KLNK 201922Z 16005KT 5SM BR OVC005 01/M01 A3007 RMK AO2 T00061006
Loading
Personal Weather Stations






























Interactive Weather Map New forecast layout! Learn more

10-Day Weather Forecast

Advertisements
Track Severe Weather on mobile